sensor_id;sensor_type;location;lat;lon;timestamp;pressure;altitude;pressure_sealevel;temperature;humidity
59170;BME280;52474;52.236;5.114;2023-04-06T00:02:06;101852.34;;;3.01;100.00
59170;BME280;52474;52.236;5.114;2023-04-06T00:04:32;101842.97;;;2.95;100.00
59170;BME280;52474;52.236;5.114;2023-04-06T00:06:58;101826.00;;;2.82;100.00
59170;BME280;52474;52.236;5.114;2023-04-06T00:09:23;101823.88;;;2.92;100.00
59170;BME280;52474;52.236;5.114;2023-04-06T00:11:49;101848.56;;;3.08;100.00
59170;BME280;52474;52.236;5.114;2023-04-06T00:14:15;101831.09;;;3.09;100.00
59170;BME280;52474;52.236;5.114;2023-04-06T00:16:42;101840.06;;;3.03;100.00
59170;BME280;52474;52.236;5.114;2023-04-06T00:19:08;101844.41;;;3.03;100.00
59170;BME280;52474;52.236;5.114;2023-04-06T00:21:34;101825.53;;;2.94;100.00
59170;BME280;52474;52.236;5.114;2023-04-06T00:24:00;101832.50;;;2.95;100.00
59170;BME280;52474;52.236;5.114;2023-04-06T00:26:26;101832.50;;;2.95;100.00
59170;BME280;52474;52.236;5.114;2023-04-06T00:28:54;101806.19;;;2.75;100.00
59170;BME280;52474;52.236;5.114;2023-04-06T00:31:20;101825.16;;;2.82;100.00
59170;BME280;52474;52.236;5.114;2023-04-06T00:33:45;101825.81;;;2.87;100.00
59170;BME280;52474;52.236;5.114;2023-04-06T00:36:11;101819.34;;;2.97;100.00
59170;BME280;52474;52.236;5.114;2023-04-06T00:38:37;101819.34;;;2.97;100.00
59170;BME280;52474;52.236;5.114;2023-04-06T00:41:03;101817.25;;;3.05;100.00
59170;BME280;52474;52.236;5.114;2023-04-06T00:43:30;101816.88;;;3.16;100.00
59170;BME280;52474;52.236;5.114;2023-04-06T00:45:55;101790.25;;;3.05;100.00
59170;BME280;52474;52.236;5.114;2023-04-06T00:48:22;101814.38;;;3.13;100.00
59170;BME280;52474;52.236;5.114;2023-04-06T00:50:47;101808.09;;;3.17;100.00
59170;BME280;52474;52.236;5.114;2023-04-06T00:53:13;101804.09;;;3.08;100.00
59170;BME280;52474;52.236;5.114;2023-04-06T00:55:39;101807.41;;;3.12;100.00
59170;BME280;52474;52.236;5.114;2023-04-06T00:58:05;101805.66;;;3.12;100.00
59170;BME280;52474;52.236;5.114;2023-04-06T01:00:39;101789.19;;;3.10;100.00
59170;BME280;52474;52.236;5.114;2023-04-06T01:03:08;101795.00;;;3.17;100.00
59170;BME280;52474;52.236;5.114;2023-04-06T01:05:39;101772.78;;;3.05;100.00
59170;BME280;52474;52.236;5.114;2023-04-06T01:08:10;101783.75;;;3.15;100.00
59170;BME280;52474;52.236;5.114;2023-04-06T01:10:36;101783.69;;;3.16;100.00
59170;BME280;52474;52.236;5.114;2023-04-06T01:13:13;101763.00;;;3.10;100.00
59170;BME280;52474;52.236;5.114;2023-04-06T01:15:49;101776.75;;;3.15;100.00
59170;BME280;52474;52.236;5.114;2023-04-06T01:18:26;101766.13;;;3.20;100.00
59170;BME280;52474;52.236;5.114;2023-04-06T01:20:58;101774.63;;;3.25;100.00
59170;BME280;52474;52.236;5.114;2023-04-06T01:23:26;101747.19;;;3.13;100.00
59170;BME280;52474;52.236;5.114;2023-04-06T01:25:52;101748.06;;;3.12;100.00
59170;BME280;52474;52.236;5.114;2023-04-06T01:28:19;101774.50;;;3.28;100.00
59170;BME280;52474;52.236;5.114;2023-04-06T01:31:07;101764.84;;;3.30;100.00
59170;BME280;52474;52.236;5.114;2023-04-06T01:33:49;101761.09;;;3.36;100.00
59170;BME280;52474;52.236;5.114;2023-04-06T01:36:18;101763.66;;;3.37;100.00
59170;BME280;52474;52.236;5.114;2023-04-06T01:38:48;101743.88;;;3.30;100.00
59170;BME280;52474;52.236;5.114;2023-04-06T01:41:17;101745.72;;;3.49;100.00
59170;BME280;52474;52.236;5.114;2023-04-06T01:43:48;101688.09;;;3.08;100.00
59170;BME280;52474;52.236;5.114;2023-04-06T01:46:15;101746.53;;;3.51;100.00
59170;BME280;52474;52.236;5.114;2023-04-06T01:48:43;101723.34;;;3.41;100.00
59170;BME280;52474;52.236;5.114;2023-04-06T01:51:30;101728.06;;;3.54;100.00
59170;BME280;52474;52.236;5.114;2023-04-06T01:53:59;101718.03;;;3.43;100.00
59170;BME280;52474;52.236;5.114;2023-04-06T01:56:51;101739.34;;;3.56;100.00
59170;BME280;52474;52.236;5.114;2023-04-06T01:59:29;101703.97;;;3.46;100.00
59170;BME280;52474;52.236;5.114;2023-04-06T02:01:56;101719.41;;;3.52;100.00
59170;BME280;52474;52.236;5.114;2023-04-06T02:04:24;101711.97;;;3.42;100.00
59170;BME280;52474;52.236;5.114;2023-04-06T02:06:57;101717.44;;;3.57;100.00
59170;BME280;52474;52.236;5.114;2023-04-06T02:09:26;101717.41;;;3.58;100.00
59170;BME280;52474;52.236;5.114;2023-04-06T02:11:52;101699.44;;;3.49;100.00
59170;BME280;52474;52.236;5.114;2023-04-06T02:14:18;101692.97;;;3.58;100.00
59170;BME280;52474;52.236;5.114;2023-04-06T02:16:49;101711.50;;;3.74;100.00
59170;BME280;52474;52.236;5.114;2023-04-06T02:19:15;101694.22;;;3.70;100.00
59170;BME280;52474;52.236;5.114;2023-04-06T02:21:42;101703.59;;;3.75;100.00
59170;BME280;52474;52.236;5.114;2023-04-06T02:24:08;101674.50;;;3.61;100.00
59170;BME280;52474;52.236;5.114;2023-04-06T02:26:34;101698.34;;;3.75;100.00
59170;BME280;52474;52.236;5.114;2023-04-06T02:28:59;101693.63;;;3.83;100.00
59170;BME280;52474;52.236;5.114;2023-04-06T02:31:26;101703.09;;;3.86;100.00
59170;BME280;52474;52.236;5.114;2023-04-06T02:33:53;101680.94;;;3.74;100.00
59170;BME280;52474;52.236;5.114;2023-04-06T02:36:19;101693.28;;;3.91;100.00
59170;BME280;52474;52.236;5.114;2023-04-06T02:38:45;101668.69;;;3.75;100.00
59170;BME280;52474;52.236;5.114;2023-04-06T02:41:11;101689.75;;;3.92;100.00
59170;BME280;52474;52.236;5.114;2023-04-06T02:43:37;101663.34;;;3.76;100.00
59170;BME280;52474;52.236;5.114;2023-04-06T02:46:14;101683.44;;;3.96;100.00
59170;BME280;52474;52.236;5.114;2023-04-06T02:48:40;101644.97;;;3.78;100.00
59170;BME280;52474;52.236;5.114;2023-04-06T02:51:06;101665.97;;;3.97;100.00
59170;BME280;52474;52.236;5.114;2023-04-06T02:53:32;101673.63;;;4.01;100.00
59170;BME280;52474;52.236;5.114;2023-04-06T02:55:58;101663.25;;;3.98;100.00
59170;BME280;52474;52.236;5.114;2023-04-06T02:58:31;101659.75;;;3.99;100.00
59170;BME280;52474;52.236;5.114;2023-04-06T03:00:57;101653.72;;;3.97;100.00
59170;BME280;52474;52.236;5.114;2023-04-06T03:03:23;101624.06;;;3.76;100.00
59170;BME280;52474;52.236;5.114;2023-04-06T03:05:49;101631.38;;;3.88;100.00
59170;BME280;52474;52.236;5.114;2023-04-06T03:08:21;101652.38;;;4.07;100.00
59170;BME280;52474;52.236;5.114;2023-04-06T03:10:47;101650.03;;;4.01;100.00
59170;BME280;52474;52.236;5.114;2023-04-06T03:13:15;101653.34;;;4.05;100.00
59170;BME280;52474;52.236;5.114;2023-04-06T03:15:50;101631.38;;;3.88;100.00
59170;BME280;52474;52.236;5.114;2023-04-06T03:18:23;101657.81;;;4.03;100.00
59170;BME280;52474;52.236;5.114;2023-04-06T03:20:50;101652.88;;;3.97;100.00
59170;BME280;52474;52.236;5.114;2023-04-06T03:23:18;101655.69;;;3.92;100.00
59170;BME280;52474;52.236;5.114;2023-04-06T03:25:46;101634.97;;;3.86;100.00
59170;BME280;52474;52.236;5.114;2023-04-06T03:28:16;101636.97;;;3.81;100.00
59170;BME280;52474;52.236;5.114;2023-04-06T03:30:59;101632.69;;;3.78;100.00
59170;BME280;52474;52.236;5.114;2023-04-06T03:33:55;101614.22;;;3.62;100.00
59170;BME280;52474;52.236;5.114;2023-04-06T03:36:25;101591.81;;;3.55;100.00
59170;BME280;52474;52.236;5.114;2023-04-06T03:38:54;101588.56;;;3.50;100.00
59170;BME280;52474;52.236;5.114;2023-04-06T03:41:20;101625.63;;;3.80;100.00
59170;BME280;52474;52.236;5.114;2023-04-06T03:43:54;101628.25;;;3.80;100.00
59170;BME280;52474;52.236;5.114;2023-04-06T03:46:20;101626.56;;;3.79;100.00
59170;BME280;52474;52.236;5.114;2023-04-06T03:48:49;101617.19;;;3.74;100.00
59170;BME280;52474;52.236;5.114;2023-04-06T03:51:17;101615.34;;;3.76;100.00
59170;BME280;52474;52.236;5.114;2023-04-06T03:53:42;101599.34;;;3.63;100.00
59170;BME280;52474;52.236;5.114;2023-04-06T03:56:08;101626.69;;;3.76;100.00
59170;BME280;52474;52.236;5.114;2023-04-06T03:58:34;101621.59;;;3.73;100.00
59170;BME280;52474;52.236;5.114;2023-04-06T04:01:00;101610.41;;;3.70;100.00
59170;BME280;52474;52.236;5.114;2023-04-06T04:03:26;101619.94;;;3.71;100.00
59170;BME280;52474;52.236;5.114;2023-04-06T04:05:53;101597.91;;;3.56;100.00
59170;BME280;52474;52.236;5.114;2023-04-06T04:08:21;101591.88;;;3.54;100.00
59170;BME280;52474;52.236;5.114;2023-04-06T04:10:47;101592.72;;;3.54;100.00
59170;BME280;52474;52.236;5.114;2023-04-06T04:13:13;101608.81;;;3.65;100.00
59170;BME280;52474;52.236;5.114;2023-04-06T04:15:41;101621.59;;;3.73;100.00
59170;BME280;52474;52.236;5.114;2023-04-06T04:18:06;101570.28;;;3.49;100.00
59170;BME280;52474;52.236;5.114;2023-04-06T04:20:32;101609.47;;;3.71;100.00
59170;BME280;52474;52.236;5.114;2023-04-06T04:22:59;101611.25;;;3.70;100.00
59170;BME280;52474;52.236;5.114;2023-04-06T04:25:29;101603.63;;;3.64;100.00
59170;BME280;52474;52.236;5.114;2023-04-06T04:27:54;101610.06;;;3.77;100.00
59170;BME280;52474;52.236;5.114;2023-04-06T04:30:21;101610.09;;;3.76;100.00
59170;BME280;52474;52.236;5.114;2023-04-06T04:32:47;101615.94;;;3.82;100.00
59170;BME280;52474;52.236;5.114;2023-04-06T04:35:16;101608.06;;;3.82;100.00
59170;BME280;52474;52.236;5.114;2023-04-06T04:37:42;101606.34;;;3.81;100.00
59170;BME280;52474;52.236;5.114;2023-04-06T04:40:09;101612.13;;;3.90;100.00
59170;BME280;52474;52.236;5.114;2023-04-06T04:42:52;101604.63;;;3.82;100.00
59170;BME280;52474;52.236;5.114;2023-04-06T04:45:24;101553.44;;;3.54;100.00
59170;BME280;52474;52.236;5.114;2023-04-06T04:47:51;101583.41;;;3.68;100.00
59170;BME280;52474;52.236;5.114;2023-04-06T04:50:19;101597.53;;;3.84;100.00
59170;BME280;52474;52.236;5.114;2023-04-06T04:52:47;101600.06;;;3.85;100.00
59170;BME280;52474;52.236;5.114;2023-04-06T04:55:18;101576.78;;;3.79;100.00
59170;BME280;52474;52.236;5.114;2023-04-06T04:57:47;101598.81;;;3.94;100.00
59170;BME280;52474;52.236;5.114;2023-04-06T05:00:14;101589.19;;;3.95;100.00
59170;BME280;52474;52.236;5.114;2023-04-06T05:02:43;101595.75;;;4.03;100.00
59170;BME280;52474;52.236;5.114;2023-04-06T05:05:16;101597.47;;;4.04;100.00
59170;BME280;52474;52.236;5.114;2023-04-06T05:07:42;101602.72;;;4.04;100.00
59170;BME280;52474;52.236;5.114;2023-04-06T05:10:14;101594.00;;;4.04;100.00
59170;BME280;52474;52.236;5.114;2023-04-06T05:12:50;101599.16;;;4.05;100.00
59170;BME280;52474;52.236;5.114;2023-04-06T05:15:16;101601.63;;;4.08;100.00
59170;BME280;52474;52.236;5.114;2023-04-06T05:17:42;101589.47;;;4.07;100.00
59170;BME280;52474;52.236;5.114;2023-04-06T05:20:11;101594.34;;;4.15;100.00
59170;BME280;52474;52.236;5.114;2023-04-06T05:22:44;101588.69;;;4.24;100.00
59170;BME280;52474;52.236;5.114;2023-04-06T05:25:10;101591.25;;;4.26;100.00
59170;BME280;52474;52.236;5.114;2023-04-06T05:27:38;101592.00;;;4.28;100.00
59170;BME280;52474;52.236;5.114;2023-04-06T05:30:10;101591.09;;;4.29;100.00
59170;BME280;52474;52.236;5.114;2023-04-06T05:32:42;101543.13;;;4.08;100.00
59170;BME280;52474;52.236;5.114;2023-04-06T05:35:10;101560.78;;;4.23;100.00
59170;BME280;52474;52.236;5.114;2023-04-06T05:37:39;101591.41;;;4.40;100.00
59170;BME280;52474;52.236;5.114;2023-04-06T05:40:06;101588.03;;;4.38;100.00
59170;BME280;52474;52.236;5.114;2023-04-06T05:42:39;101586.94;;;4.42;100.00
59170;BME280;52474;52.236;5.114;2023-04-06T05:45:07;101580.03;;;4.41;100.00
59170;BME280;52474;52.236;5.114;2023-04-06T05:47:33;101589.34;;;4.47;100.00
59170;BME280;52474;52.236;5.114;2023-04-06T05:50:07;101587.56;;;4.47;100.00
59170;BME280;52474;52.236;5.114;2023-04-06T05:52:36;101591.81;;;4.50;100.00
59170;BME280;52474;52.236;5.114;2023-04-06T05:55:10;101597.00;;;4.51;100.00
59170;BME280;52474;52.236;5.114;2023-04-06T05:57:39;101588.06;;;4.56;100.00
59170;BME280;52474;52.236;5.114;2023-04-06T06:00:06;101591.31;;;4.61;100.00
59170;BME280;52474;52.236;5.114;2023-04-06T06:02:49;101585.94;;;4.64;100.00
59170;BME280;52474;52.236;5.114;2023-04-06T06:05:19;101576.91;;;4.69;100.00
59170;BME280;52474;52.236;5.114;2023-04-06T06:07:46;101580.69;;;4.81;100.00
59170;BME280;52474;52.236;5.114;2023-04-06T06:10:11;101588.03;;;4.92;100.00
59170;BME280;52474;52.236;5.114;2023-04-06T06:12:37;101587.19;;;5.09;100.00
59170;BME280;52474;52.236;5.114;2023-04-06T06:15:03;101594.22;;;5.26;100.00
59170;BME280;52474;52.236;5.114;2023-04-06T06:17:33;101590.13;;;5.37;100.00
59170;BME280;52474;52.236;5.114;2023-04-06T06:19:59;101589.47;;;5.50;100.00
59170;BME280;52474;52.236;5.114;2023-04-06T06:22:26;101590.53;;;5.63;100.00
59170;BME280;52474;52.236;5.114;2023-04-06T06:24:53;101590.97;;;5.71;100.00
59170;BME280;52474;52.236;5.114;2023-04-06T06:27:19;101581.38;;;5.70;100.00
59170;BME280;52474;52.236;5.114;2023-04-06T06:29:46;101584.34;;;5.64;100.00
59170;BME280;52474;52.236;5.114;2023-04-06T06:32:14;101576.59;;;5.61;100.00
59170;BME280;52474;52.236;5.114;2023-04-06T06:34:41;101577.13;;;5.52;100.00
59170;BME280;52474;52.236;5.114;2023-04-06T06:37:08;101547.38;;;5.34;100.00
59170;BME280;52474;52.236;5.114;2023-04-06T06:39:36;101587.69;;;5.50;100.00
59170;BME280;52474;52.236;5.114;2023-04-06T06:42:05;101580.22;;;5.43;100.00
59170;BME280;52474;52.236;5.114;2023-04-06T06:44:50;101585.41;;;5.44;100.00
59170;BME280;52474;52.236;5.114;2023-04-06T06:47:16;101581.91;;;5.44;100.00
59170;BME280;52474;52.236;5.114;2023-04-06T06:49:43;101564.41;;;5.27;100.00
59170;BME280;52474;52.236;5.114;2023-04-06T06:52:09;101556.84;;;5.21;100.00
59170;BME280;52474;52.236;5.114;2023-04-06T06:54:35;101539.94;;;5.09;100.00
59170;BME280;52474;52.236;5.114;2023-04-06T06:57:01;101578.22;;;5.30;100.00
59170;BME280;52474;52.236;5.114;2023-04-06T06:59:27;101583.31;;;5.33;100.00
59170;BME280;52474;52.236;5.114;2023-04-06T07:01:53;101582.06;;;5.41;100.00
59170;BME280;52474;52.236;5.114;2023-04-06T07:04:19;101582.16;;;5.39;100.00
59170;BME280;52474;52.236;5.114;2023-04-06T07:06:45;101566.91;;;5.46;100.00
59170;BME280;52474;52.236;5.114;2023-04-06T07:09:11;101573.88;;;5.47;100.00
59170;BME280;52474;52.236;5.114;2023-04-06T07:11:37;101571.69;;;5.55;100.00
59170;BME280;52474;52.236;5.114;2023-04-06T07:14:04;101566.28;;;5.58;100.00
59170;BME280;52474;52.236;5.114;2023-04-06T07:16:30;101556.34;;;5.63;100.00
59170;BME280;52474;52.236;5.114;2023-04-06T07:18:56;101554.69;;;5.78;100.00
59170;BME280;52474;52.236;5.114;2023-04-06T07:21:22;101559.28;;;5.90;100.00
59170;BME280;52474;52.236;5.114;2023-04-06T07:23:48;101566.22;;;6.09;100.00
59170;BME280;52474;52.236;5.114;2023-04-06T07:26:14;101562.72;;;6.24;100.00
59170;BME280;52474;52.236;5.114;2023-04-06T07:28:40;101564.16;;;6.30;100.00
59170;BME280;52474;52.236;5.114;2023-04-06T07:31:07;101564.59;;;6.38;100.00
59170;BME280;52474;52.236;5.114;2023-04-06T07:33:33;101563.72;;;6.53;100.00
59170;BME280;52474;52.236;5.114;2023-04-06T07:35:59;101537.75;;;6.47;100.00
59170;BME280;52474;52.236;5.114;2023-04-06T07:38:25;101557.19;;;6.60;100.00
59170;BME280;52474;52.236;5.114;2023-04-06T07:40:52;101558.66;;;6.80;100.00
59170;BME280;52474;52.236;5.114;2023-04-06T07:43:21;101551.84;;;6.92;100.00
59170;BME280;52474;52.236;5.114;2023-04-06T07:45:47;101549.50;;;7.02;100.00
59170;BME280;52474;52.236;5.114;2023-04-06T07:48:15;101542.25;;;7.05;100.00
59170;BME280;52474;52.236;5.114;2023-04-06T07:50:41;101554.03;;;7.28;100.00
59170;BME280;52474;52.236;5.114;2023-04-06T07:53:11;101524.44;;;7.39;100.00
59170;BME280;52474;52.236;5.114;2023-04-06T07:55:38;101535.25;;;7.49;100.00
59170;BME280;52474;52.236;5.114;2023-04-06T07:58:04;101549.66;;;7.72;100.00
59170;BME280;52474;52.236;5.114;2023-04-06T08:00:31;101532.91;;;7.59;100.00
59170;BME280;52474;52.236;5.114;2023-04-06T08:02:57;101505.97;;;7.68;100.00
59170;BME280;52474;52.236;5.114;2023-04-06T08:05:23;101555.19;;;7.96;100.00
59170;BME280;52474;52.236;5.114;2023-04-06T08:07:49;101556.41;;;7.90;100.00
59170;BME280;52474;52.236;5.114;2023-04-06T08:10:15;101559.47;;;8.11;100.00
59170;BME280;52474;52.236;5.114;2023-04-06T08:12:41;101555.38;;;8.07;100.00
59170;BME280;52474;52.236;5.114;2023-04-06T08:15:07;101549.06;;;7.95;100.00
59170;BME280;52474;52.236;5.114;2023-04-06T08:17:33;101549.47;;;8.16;100.00
59170;BME280;52474;52.236;5.114;2023-04-06T08:20:00;101477.59;;;7.86;100.00
59170;BME280;52474;52.236;5.114;2023-04-06T08:22:26;101520.13;;;8.35;100.00
59170;BME280;52474;52.236;5.114;2023-04-06T08:24:52;101529.84;;;8.62;100.00
59170;BME280;52474;52.236;5.114;2023-04-06T08:27:18;101547.22;;;8.79;100.00
59170;BME280;52474;52.236;5.114;2023-04-06T08:29:44;101542.16;;;8.89;100.00
59170;BME280;52474;52.236;5.114;2023-04-06T08:32:09;101547.25;;;9.05;100.00
59170;BME280;52474;52.236;5.114;2023-04-06T08:34:36;101527.25;;;9.77;100.00
59170;BME280;52474;52.236;5.114;2023-04-06T08:37:02;101537.63;;;10.17;100.00
59170;BME280;52474;52.236;5.114;2023-04-06T08:39:28;101511.72;;;10.34;100.00
59170;BME280;52474;52.236;5.114;2023-04-06T08:41:56;101533.97;;;10.31;100.00
59170;BME280;52474;52.236;5.114;2023-04-06T08:44:26;101495.84;;;9.73;100.00
59170;BME280;52474;52.236;5.114;2023-04-06T08:46:52;101523.63;;;9.78;100.00
59170;BME280;52474;52.236;5.114;2023-04-06T08:49:18;101498.75;;;9.31;100.00
59170;BME280;52474;52.236;5.114;2023-04-06T08:51:44;101530.34;;;9.45;100.00
59170;BME280;52474;52.236;5.114;2023-04-06T08:54:10;101515.47;;;9.06;100.00
59170;BME280;52474;52.236;5.114;2023-04-06T08:56:39;101551.25;;;9.10;100.00
59170;BME280;52474;52.236;5.114;2023-04-06T08:59:06;101548.63;;;8.97;100.00
59170;BME280;52474;52.236;5.114;2023-04-06T09:01:38;101542.13;;;8.76;100.00
59170;BME280;52474;52.236;5.114;2023-04-06T09:04:07;101556.13;;;8.64;100.00
59170;BME280;52474;52.236;5.114;2023-04-06T09:06:36;101553.69;;;8.33;100.00
59170;BME280;52474;52.236;5.114;2023-04-06T09:09:02;101523.72;;;8.34;100.00
59170;BME280;52474;52.236;5.114;2023-04-06T09:11:29;101559.16;;;8.45;100.00
59170;BME280;52474;52.236;5.114;2023-04-06T09:13:55;101557.94;;;8.63;100.00
59170;BME280;52474;52.236;5.114;2023-04-06T09:16:22;101549.97;;;8.50;100.00
59170;BME280;52474;52.236;5.114;2023-04-06T09:18:49;101549.94;;;8.77;100.00
59170;BME280;52474;52.236;5.114;2023-04-06T09:21:19;101559.13;;;8.72;100.00
59170;BME280;52474;52.236;5.114;2023-04-06T09:23:45;101551.19;;;8.59;100.00
59170;BME280;52474;52.236;5.114;2023-04-06T09:26:17;101557.00;;;8.64;100.00
59170;BME280;52474;52.236;5.114;2023-04-06T09:28:52;101562.28;;;8.64;100.00
59170;BME280;52474;52.236;5.114;2023-04-06T09:31:26;101540.63;;;8.59;100.00
59170;BME280;52474;52.236;5.114;2023-04-06T09:33:52;101567.88;;;8.59;100.00
59170;BME280;52474;52.236;5.114;2023-04-06T09:36:18;101561.00;;;8.57;100.00
59170;BME280;52474;52.236;5.114;2023-04-06T09:38:53;101525.19;;;8.38;100.00
59170;BME280;52474;52.236;5.114;2023-04-06T09:43:51;101539.56;;;8.62;100.00
59170;BME280;52474;52.236;5.114;2023-04-06T09:46:17;101560.84;;;8.86;100.00
59170;BME280;52474;52.236;5.114;2023-04-06T09:48:46;101562.25;;;8.91;100.00
59170;BME280;52474;52.236;5.114;2023-04-06T09:51:14;101557.69;;;8.93;100.00
59170;BME280;52474;52.236;5.114;2023-04-06T09:53:42;101555.63;;;9.11;100.00
59170;BME280;52474;52.236;5.114;2023-04-06T09:56:12;101517.34;;;9.04;100.00
59170;BME280;52474;52.236;5.114;2023-04-06T09:58:43;101553.81;;;9.12;100.00
59170;BME280;52474;52.236;5.114;2023-04-06T10:01:15;101554.88;;;9.09;100.00
59170;BME280;52474;52.236;5.114;2023-04-06T10:04:07;101558.19;;;8.86;100.00
59170;BME280;52474;52.236;5.114;2023-04-06T10:06:38;101557.03;;;8.77;100.00
59170;BME280;52474;52.236;5.114;2023-04-06T10:09:06;101535.06;;;8.76;100.00
59170;BME280;52474;52.236;5.114;2023-04-06T10:11:34;101554.41;;;8.90;100.00
59170;BME280;52474;52.236;5.114;2023-04-06T10:14:00;101554.53;;;8.61;100.00
59170;BME280;52474;52.236;5.114;2023-04-06T10:16:28;101555.88;;;8.54;100.00
59170;BME280;52474;52.236;5.114;2023-04-06T10:19:05;101561.59;;;8.48;100.00
59170;BME280;52474;52.236;5.114;2023-04-06T10:21:33;101558.50;;;8.41;100.00
59170;BME280;52474;52.236;5.114;2023-04-06T10:24:01;101557.28;;;8.32;100.00
59170;BME280;52474;52.236;5.114;2023-04-06T10:26:28;101562.25;;;8.37;100.00
59170;BME280;52474;52.236;5.114;2023-04-06T10:28:54;101547.84;;;8.43;100.00
59170;BME280;52474;52.236;5.114;2023-04-06T10:31:27;101531.81;;;8.58;100.00
59170;BME280;52474;52.236;5.114;2023-04-06T10:33:58;101523.22;;;8.69;100.00
59170;BME280;52474;52.236;5.114;2023-04-06T10:36:26;101541.56;;;8.71;100.00
59170;BME280;52474;52.236;5.114;2023-04-06T10:39:00;101541.72;;;8.82;100.00
59170;BME280;52474;52.236;5.114;2023-04-06T10:41:42;101538.16;;;8.56;100.00
59170;BME280;52474;52.236;5.114;2023-04-06T10:44:17;101532.47;;;8.49;100.00
59170;BME280;52474;52.236;5.114;2023-04-06T10:46:55;101533.69;;;8.02;100.00
59170;BME280;52474;52.236;5.114;2023-04-06T10:49:21;101535.84;;;8.10;100.00
59170;BME280;52474;52.236;5.114;2023-04-06T10:51:51;101538.31;;;7.99;100.00
59170;BME280;52474;52.236;5.114;2023-04-06T10:54:24;101532.88;;;8.14;100.00
59170;BME280;52474;52.236;5.114;2023-04-06T10:56:50;101512.78;;;7.99;100.00
59170;BME280;52474;52.236;5.114;2023-04-06T10:59:22;101521.13;;;8.20;100.00
59170;BME280;52474;52.236;5.114;2023-04-06T11:01:50;101515.97;;;8.31;100.00
59170;BME280;52474;52.236;5.114;2023-04-06T11:04:17;101513.75;;;8.40;100.00
59170;BME280;52474;52.236;5.114;2023-04-06T11:06:48;101525.34;;;8.23;100.00
59170;BME280;52474;52.236;5.114;2023-04-06T11:09:28;101514.25;;;8.17;100.00
59170;BME280;52474;52.236;5.114;2023-04-06T11:11:54;101515.84;;;8.20;100.00
59170;BME280;52474;52.236;5.114;2023-04-06T11:14:20;101521.25;;;8.31;100.00
59170;BME280;52474;52.236;5.114;2023-04-06T11:16:47;101503.28;;;8.24;100.00
59170;BME280;52474;52.236;5.114;2023-04-06T11:19:15;101500.56;;;8.25;100.00
59170;BME280;52474;52.236;5.114;2023-04-06T11:21:42;101473.50;;;8.22;100.00
59170;BME280;52474;52.236;5.114;2023-04-06T11:24:20;101487.13;;;8.43;100.00
59170;BME280;52474;52.236;5.114;2023-04-06T11:29:23;101501.84;;;8.59;100.00
59170;BME280;52474;52.236;5.114;2023-04-06T11:34:24;101505.13;;;8.63;100.00
59170;BME280;52474;52.236;5.114;2023-04-06T11:36:55;101459.97;;;8.13;100.00
59170;BME280;52474;52.236;5.114;2023-04-06T11:39:26;101492.50;;;8.41;100.00
59170;BME280;52474;52.236;5.114;2023-04-06T11:41:57;101496.97;;;8.26;100.00
59170;BME280;52474;52.236;5.114;2023-04-06T11:47:04;101472.09;;;8.03;100.00
59170;BME280;52474;52.236;5.114;2023-04-06T11:49:31;101491.28;;;8.05;100.00
59170;BME280;52474;52.236;5.114;2023-04-06T11:51:58;101484.72;;;8.25;100.00
59170;BME280;52474;52.236;5.114;2023-04-06T11:54:36;101483.13;;;8.23;100.00
59170;BME280;52474;52.236;5.114;2023-04-06T11:57:04;101498.91;;;8.37;100.00
59170;BME280;52474;52.236;5.114;2023-04-06T11:59:31;101432.59;;;8.02;100.00
59170;BME280;52474;52.236;5.114;2023-04-06T12:01:57;101469.72;;;7.99;100.00
59170;BME280;52474;52.236;5.114;2023-04-06T12:04:24;101487.56;;;7.95;100.00
59170;BME280;52474;52.236;5.114;2023-04-06T12:06:50;101467.59;;;7.91;100.00
59170;BME280;52474;52.236;5.114;2023-04-06T12:09:16;101465.44;;;7.83;100.00
59170;BME280;52474;52.236;5.114;2023-04-06T12:11:45;101475.88;;;7.85;100.00
59170;BME280;52474;52.236;5.114;2023-04-06T12:14:12;101480.16;;;7.73;100.00
59170;BME280;52474;52.236;5.114;2023-04-06T12:16:38;101474.78;;;7.74;100.00
59170;BME280;52474;52.236;5.114;2023-04-06T12:19:04;101473.94;;;7.74;100.00
59170;BME280;52474;52.236;5.114;2023-04-06T12:21:31;101474.34;;;7.68;100.00
59170;BME280;52474;52.236;5.114;2023-04-06T12:23:58;101434.47;;;7.17;100.00
59170;BME280;52474;52.236;5.114;2023-04-06T12:26:24;101482.16;;;7.55;100.00
59170;BME280;52474;52.236;5.114;2023-04-06T12:28:50;101486.38;;;7.58;100.00
59170;BME280;52474;52.236;5.114;2023-04-06T12:31:17;101483.38;;;7.35;100.00
59170;BME280;52474;52.236;5.114;2023-04-06T12:33:43;101485.81;;;7.38;100.00
59170;BME280;52474;52.236;5.114;2023-04-06T12:36:14;101490.63;;;7.60;100.00
59170;BME280;52474;52.236;5.114;2023-04-06T12:38:41;101454.41;;;7.49;100.00
59170;BME280;52474;52.236;5.114;2023-04-06T12:41:07;101484.63;;;7.44;100.00
59170;BME280;52474;52.236;5.114;2023-04-06T12:43:33;101481.03;;;7.59;100.00
59170;BME280;52474;52.236;5.114;2023-04-06T12:46:00;101473.13;;;7.59;100.00
59170;BME280;52474;52.236;5.114;2023-04-06T12:48:25;101484.41;;;7.61;100.00
59170;BME280;52474;52.236;5.114;2023-04-06T12:51:00;101482.25;;;7.68;100.00
59170;BME280;52474;52.236;5.114;2023-04-06T12:53:26;101481.03;;;7.59;100.00
59170;BME280;52474;52.236;5.114;2023-04-06T12:55:54;101469.94;;;7.54;100.00
59170;BME280;52474;52.236;5.114;2023-04-06T12:58:20;101466.66;;;7.36;100.00
59170;BME280;52474;52.236;5.114;2023-04-06T13:00:47;101469.38;;;7.35;100.00
59170;BME280;52474;52.236;5.114;2023-04-06T13:03:13;101478.31;;;7.32;100.00
59170;BME280;52474;52.236;5.114;2023-04-06T13:05:46;101477.56;;;7.30;100.00
59170;BME280;52474;52.236;5.114;2023-04-06T13:08:13;101479.16;;;7.32;100.00